createdAt,value
2023-08-10T00:00:54.065Z,0.00
2023-08-10T00:01:53.943Z,0.00
2023-08-10T00:02:53.972Z,0.00
2023-08-10T00:03:53.950Z,0.00
2023-08-10T00:04:53.911Z,0.00
2023-08-10T00:05:53.914Z,0.00
2023-08-10T00:06:53.932Z,0.00
2023-08-10T00:07:53.830Z,0.00
2023-08-10T00:08:53.842Z,0.00
2023-08-10T00:09:53.836Z,0.00
2023-08-10T00:10:53.860Z,0.00
2023-08-10T00:11:53.814Z,0.00
2023-08-10T00:12:53.776Z,0.00
2023-08-10T00:13:53.762Z,0.00
2023-08-10T00:14:53.751Z,0.00
2023-08-10T00:15:53.726Z,0.00
2023-08-10T00:16:53.775Z,0.00
2023-08-10T00:17:53.778Z,0.00
2023-08-10T00:18:53.721Z,0.00
2023-08-10T00:19:53.688Z,0.00
2023-08-10T00:20:53.666Z,0.00
2023-08-10T00:21:53.672Z,0.00
2023-08-10T00:22:53.634Z,0.00
2023-08-10T00:23:53.632Z,0.00
2023-08-10T00:24:53.628Z,0.00
2023-08-10T00:25:53.622Z,0.00
2023-08-10T00:33:17.981Z,0.00
2023-08-10T00:34:13.361Z,0.00
2023-08-10T00:35:12.314Z,0.00
2023-08-10T00:36:12.284Z,0.00
2023-08-10T00:37:12.354Z,0.00
2023-08-10T00:38:12.295Z,0.00
2023-08-10T00:39:12.302Z,0.00
2023-08-10T00:40:12.258Z,0.00
2023-08-10T00:41:12.237Z,0.00
2023-08-10T00:42:12.265Z,0.00
2023-08-10T00:43:12.213Z,0.00
2023-08-10T00:44:12.193Z,0.00
2023-08-10T00:45:12.188Z,0.00
2023-08-10T00:46:12.236Z,0.00
2023-08-10T00:47:12.203Z,0.00
2023-08-10T00:48:12.146Z,0.00
2023-08-10T00:49:12.137Z,0.00
2023-08-10T00:50:12.084Z,0.00
2023-08-10T00:51:12.066Z,0.00
2023-08-10T00:52:12.048Z,0.00
2023-08-10T00:53:12.064Z,0.00
2023-08-10T00:54:12.067Z,0.00
2023-08-10T00:55:12.008Z,0.00
2023-08-10T00:56:11.961Z,0.00
2023-08-10T00:57:11.978Z,0.00
2023-08-10T00:58:11.958Z,0.00
2023-08-10T00:59:11.946Z,0.00
2023-08-10T01:00:11.973Z,0.00
2023-08-10T01:01:11.952Z,0.00
2023-08-10T01:02:11.966Z,0.00
2023-08-10T01:03:11.960Z,0.00
2023-08-10T01:04:11.882Z,0.00
2023-08-10T01:05:11.979Z,0.00
2023-08-10T01:06:11.847Z,0.00
2023-08-10T01:07:11.835Z,0.00
2023-08-10T01:08:11.816Z,0.00
2023-08-10T01:09:11.852Z,0.00
2023-08-10T01:10:11.795Z,0.00
2023-08-10T01:11:11.801Z,0.00
2023-08-10T01:12:11.807Z,0.00
2023-08-10T01:13:11.757Z,0.00
2023-08-10T01:14:11.757Z,0.00
2023-08-10T01:18:45.286Z,0.00
2023-08-10T01:19:45.257Z,0.00
2023-08-10T01:20:45.244Z,0.00
2023-08-10T01:21:45.227Z,0.00
2023-08-10T01:22:45.249Z,0.00
2023-08-10T01:23:45.238Z,0.00
2023-08-10T01:24:45.249Z,0.00
2023-08-10T01:25:45.286Z,0.00
2023-08-10T01:26:45.198Z,0.00
2023-08-10T01:27:45.319Z,0.00
2023-08-10T01:28:45.234Z,0.00
2023-08-10T01:29:45.546Z,0.00
2023-08-10T01:30:45.153Z,0.00
2023-08-10T01:31:45.126Z,0.00
2023-08-10T01:32:45.126Z,0.00
2023-08-10T01:33:45.083Z,0.00
2023-08-10T01:34:45.080Z,0.00
2023-08-10T01:35:45.029Z,0.00
2023-08-10T01:36:45.021Z,0.00
2023-08-10T01:37:44.976Z,0.00
2023-08-10T01:38:45.003Z,0.00
2023-08-10T01:39:45.003Z,0.00
2023-08-10T01:40:44.958Z,0.00
2023-08-10T01:41:44.950Z,0.00
2023-08-10T01:42:51.682Z,0.00
2023-08-10T01:43:44.951Z,0.00
2023-08-10T01:44:44.906Z,0.00
2023-08-10T01:45:44.915Z,0.00
2023-08-10T01:46:44.890Z,0.00
2023-08-10T01:47:44.936Z,0.00
2023-08-10T01:48:47.320Z,0.00
2023-08-10T01:49:44.841Z,0.00
2023-08-10T01:50:44.827Z,0.00
2023-08-10T01:51:44.815Z,0.00
2023-08-10T01:52:44.819Z,0.00
2023-08-10T01:53:44.785Z,0.00
2023-08-10T01:54:44.766Z,0.00
2023-08-10T01:55:44.784Z,0.00
2023-08-10T01:56:44.726Z,0.00
2023-08-10T01:57:44.698Z,0.00
2023-08-10T01:58:44.700Z,0.00
2023-08-10T01:59:44.694Z,0.00
2023-08-10T02:00:44.716Z,0.00
2023-08-10T02:01:44.667Z,0.00
2023-08-10T02:02:44.705Z,0.00
2023-08-10T02:03:44.716Z,0.00
2023-08-10T02:04:44.620Z,0.00
2023-08-10T02:05:44.675Z,0.00
2023-08-10T02:06:44.628Z,0.00
2023-08-10T02:07:44.580Z,0.00
2023-08-10T02:08:44.567Z,0.00
2023-08-10T02:09:44.572Z,0.00
2023-08-10T02:10:44.567Z,0.00
2023-08-10T02:11:44.529Z,0.00
2023-08-10T02:12:44.501Z,0.00
2023-08-10T02:13:44.521Z,0.00
2023-08-10T02:14:44.486Z,0.00
2023-08-10T02:15:44.536Z,0.00
2023-08-10T02:16:44.460Z,0.00
2023-08-10T02:17:44.452Z,0.00
2023-08-10T02:18:44.451Z,0.00
2023-08-10T02:19:44.408Z,0.00
2023-08-10T02:20:44.413Z,0.00
2023-08-10T02:21:44.416Z,0.00
2023-08-10T02:22:44.425Z,0.00
2023-08-10T02:23:44.361Z,0.00
2023-08-10T02:24:44.344Z,0.00
2023-08-10T02:25:44.343Z,0.00
2023-08-10T02:26:44.320Z,0.00
2023-08-10T02:27:44.348Z,0.00
2023-08-10T02:28:44.312Z,0.00
2023-08-10T02:29:44.284Z,0.00
2023-08-10T02:30:44.254Z,0.00
2023-08-10T02:31:44.329Z,0.00
2023-08-10T02:32:44.287Z,0.00
2023-08-10T02:33:44.272Z,0.00
2023-08-10T02:34:44.194Z,0.00
2023-08-10T02:35:44.194Z,0.00
2023-08-10T02:36:44.223Z,0.00
2023-08-10T02:37:44.154Z,0.00
2023-08-10T02:38:44.158Z,0.00
2023-08-10T02:39:44.158Z,0.00
2023-08-10T02:40:44.152Z,0.00
2023-08-10T02:41:44.112Z,0.00
2023-08-10T02:42:44.089Z,0.00
2023-08-10T02:43:44.090Z,0.00
2023-08-10T02:44:44.087Z,0.00
2023-08-10T02:45:44.116Z,0.00
2023-08-10T02:46:44.033Z,0.00
2023-08-10T02:47:44.041Z,0.00
2023-08-10T02:48:43.990Z,0.00
2023-08-10T02:49:44.007Z,0.00
2023-08-10T02:50:44.017Z,0.00
2023-08-10T02:51:43.985Z,0.00
2023-08-10T02:52:43.952Z,0.00
2023-08-10T02:53:43.937Z,0.00
2023-08-10T02:54:43.942Z,0.00
2023-08-10T02:55:43.941Z,0.00
2023-08-10T02:56:43.902Z,0.00
2023-08-10T02:57:43.890Z,0.00
2023-08-10T02:58:43.873Z,0.00
2023-08-10T02:59:43.870Z,0.00
2023-08-10T03:00:43.878Z,0.00
2023-08-10T03:01:43.832Z,0.00
2023-08-10T03:02:43.894Z,0.00
2023-08-10T03:03:43.797Z,0.00
2023-08-10T03:04:43.929Z,0.00
2023-08-10T03:05:43.825Z,0.00
2023-08-10T03:06:43.766Z,0.00
2023-08-10T03:07:43.733Z,0.00
2023-08-10T03:08:43.738Z,0.00
2023-08-10T03:09:43.754Z,0.00
2023-08-10T03:10:43.742Z,0.00
2023-08-10T03:11:43.698Z,0.00
2023-08-10T03:12:43.670Z,0.00
2023-08-10T03:13:43.696Z,0.00
2023-08-10T03:14:43.641Z,0.00
2023-08-10T03:15:43.638Z,0.00
2023-08-10T03:16:43.665Z,0.00
2023-08-10T03:17:43.714Z,0.00
2023-08-10T03:18:43.587Z,0.00
2023-08-10T03:19:43.609Z,0.00
2023-08-10T03:20:43.557Z,0.00
2023-08-10T03:21:43.581Z,0.00
2023-08-10T03:22:43.528Z,0.00
2023-08-10T03:27:17.044Z,0.00
2023-08-10T03:28:17.009Z,0.00
2023-08-10T03:29:16.987Z,0.00
2023-08-10T03:30:16.983Z,0.00
2023-08-10T03:31:17.076Z,0.00
2023-08-10T03:32:16.907Z,0.00
2023-08-10T03:33:16.938Z,0.00
2023-08-10T03:34:16.995Z,0.00
2023-08-10T03:35:16.956Z,0.00
2023-08-10T03:36:16.931Z,0.00
2023-08-10T03:37:16.942Z,4.00
2023-08-10T03:38:16.873Z,4.00
2023-08-10T03:39:16.883Z,0.00
2023-08-10T03:40:16.879Z,4.00
2023-08-10T03:41:16.840Z,0.00
2023-08-10T03:42:16.904Z,4.00
2023-08-10T03:43:16.799Z,4.00
2023-08-10T03:44:16.796Z,8.00
2023-08-10T03:45:16.802Z,8.00
2023-08-10T03:46:16.807Z,8.00
2023-08-10T03:47:16.702Z,8.00
2023-08-10T03:48:16.700Z,8.00
2023-08-10T03:49:16.693Z,12.00
2023-08-10T03:50:16.707Z,12.00
2023-08-10T03:51:16.645Z,12.00
2023-08-10T03:52:16.648Z,16.00
2023-08-10T03:53:16.650Z,20.00
2023-08-10T03:54:16.644Z,24.00
2023-08-10T03:55:16.655Z,24.00
2023-08-10T03:56:16.618Z,28.00
2023-08-10T03:57:16.557Z,32.00
2023-08-10T03:58:16.613Z,36.00
2023-08-10T03:59:16.557Z,40.00
2023-08-10T04:00:16.561Z,44.00
2023-08-10T04:01:16.574Z,48.00
2023-08-10T04:02:16.497Z,52.00
2023-08-10T04:03:16.814Z,60.00
2023-08-10T04:04:16.468Z,68.00
2023-08-10T04:05:16.452Z,72.00
2023-08-10T04:06:16.438Z,76.00
2023-08-10T04:07:16.470Z,84.00
2023-08-10T04:08:16.445Z,92.00
2023-08-10T04:09:16.402Z,100.00
2023-08-10T04:10:16.381Z,108.00
2023-08-10T04:11:16.379Z,116.00
2023-08-10T04:12:16.370Z,124.00
2023-08-10T04:13:16.350Z,132.00
2023-08-10T04:14:16.325Z,140.00
2023-08-10T04:15:16.320Z,148.00
2023-08-10T04:16:16.334Z,160.00
2023-08-10T04:17:16.365Z,168.00
2023-08-10T04:18:16.293Z,172.00
2023-08-10T04:19:17.631Z,180.00
2023-08-10T04:20:16.357Z,192.00
2023-08-10T04:21:16.237Z,196.00
2023-08-10T04:22:16.229Z,200.00
2023-08-10T04:23:16.206Z,208.00
2023-08-10T04:24:16.182Z,212.00
2023-08-10T04:25:16.182Z,220.00
2023-08-10T04:26:16.145Z,232.00
2023-08-10T04:27:16.148Z,248.00
2023-08-10T04:28:16.136Z,268.00
2023-08-10T04:29:16.111Z,288.00
2023-08-10T04:30:16.115Z,304.00
2023-08-10T04:31:16.141Z,324.00
2023-08-10T04:32:16.068Z,348.00
2023-08-10T04:33:16.065Z,372.00
2023-08-10T04:34:16.101Z,392.00
2023-08-10T04:35:16.044Z,420.00
2023-08-10T04:36:16.025Z,444.00
2023-08-10T04:37:15.986Z,468.00
2023-08-10T04:38:16.022Z,488.00
2023-08-10T04:39:15.967Z,512.00
2023-08-10T04:40:17.757Z,524.00
2023-08-10T04:41:15.959Z,532.00
2023-08-10T04:42:15.957Z,532.00
2023-08-10T04:43:15.945Z,532.00
2023-08-10T04:44:15.902Z,528.00
2023-08-10T04:45:15.926Z,528.00
2023-08-10T04:46:15.886Z,524.00
2023-08-10T04:47:15.905Z,524.00
2023-08-10T04:48:15.866Z,528.00
2023-08-10T04:49:15.810Z,544.00
2023-08-10T04:50:15.836Z,556.00
2023-08-10T04:51:15.792Z,576.00
2023-08-10T04:52:15.814Z,592.00
2023-08-10T04:53:15.754Z,612.00
2023-08-10T04:54:15.773Z,620.00
2023-08-10T04:55:15.758Z,636.00
2023-08-10T04:56:17.555Z,676.00
2023-08-10T04:57:15.722Z,728.00
2023-08-10T04:58:15.722Z,728.00
2023-08-10T04:59:15.683Z,780.00
2023-08-10T05:00:15.669Z,844.00
2023-08-10T05:01:15.721Z,764.00
2023-08-10T05:02:15.631Z,776.00
2023-08-10T05:03:15.770Z,808.00
2023-08-10T05:04:15.650Z,808.00
2023-08-10T05:05:15.592Z,816.00
2023-08-10T05:06:15.567Z,828.00
2023-08-10T05:07:15.555Z,832.00
2023-08-10T05:08:15.559Z,836.00
2023-08-10T05:09:15.531Z,844.00
2023-08-10T05:10:15.549Z,888.00
2023-08-10T05:11:15.514Z,948.00
2023-08-10T05:12:15.482Z,1052.00
2023-08-10T05:13:15.489Z,1168.00
2023-08-10T05:14:15.499Z,1216.00
2023-08-10T05:15:15.487Z,1204.00
2023-08-10T05:16:15.495Z,1176.00
2023-08-10T05:17:15.429Z,1144.00
2023-08-10T05:18:15.471Z,1096.00
2023-08-10T05:19:15.412Z,1140.00
2023-08-10T05:20:15.430Z,1144.00
2023-08-10T05:21:15.408Z,1008.00
2023-08-10T05:22:15.411Z,988.00
2023-08-10T05:23:15.334Z,992.00
2023-08-10T05:24:15.320Z,992.00
2023-08-10T05:25:18.720Z,996.00
2023-08-10T05:26:15.315Z,1004.00
2023-08-10T05:27:15.282Z,1008.00
2023-08-10T05:28:15.326Z,1016.00
2023-08-10T05:29:15.277Z,1056.00
2023-08-10T05:30:15.250Z,1076.00
2023-08-10T05:31:15.248Z,1052.00
2023-08-10T05:32:16.738Z,1080.00
2023-08-10T05:33:15.206Z,1084.00
2023-08-10T05:34:15.267Z,1120.00
2023-08-10T05:35:15.166Z,1104.00
2023-08-10T05:36:16.032Z,1104.00
2023-08-10T05:37:15.136Z,1088.00
2023-08-10T05:38:15.128Z,1108.00
2023-08-10T05:39:15.117Z,1108.00
2023-08-10T05:40:15.107Z,1080.00
2023-08-10T05:41:15.148Z,1088.00
2023-08-10T05:42:15.096Z,1096.00
2023-08-10T05:43:15.816Z,1112.00
2023-08-10T05:44:15.076Z,1108.00
2023-08-10T05:45:15.327Z,1112.00
2023-08-10T05:46:15.110Z,1164.00
2023-08-10T05:47:15.455Z,1168.00
2023-08-10T05:48:15.969Z,1124.00
2023-08-10T05:49:15.031Z,1132.00
2023-08-10T05:50:16.551Z,1136.00
2023-08-10T05:51:21.091Z,1144.00
2023-08-10T05:52:14.967Z,1148.00
2023-08-10T05:53:14.956Z,1164.00
2023-08-10T05:54:15.005Z,1168.00
2023-08-10T05:55:15.019Z,1244.00
2023-08-10T05:56:14.925Z,1368.00
2023-08-10T05:57:14.900Z,1280.00
2023-08-10T05:58:14.920Z,1220.00
2023-08-10T05:59:14.879Z,1252.00
2023-08-10T06:00:14.892Z,1284.00
2023-08-10T06:01:14.976Z,1240.00
2023-08-10T06:02:14.849Z,1244.00
2023-08-10T06:03:14.869Z,1248.00
2023-08-10T06:04:14.837Z,1252.00
2023-08-10T06:05:14.898Z,1260.00
2023-08-10T06:06:14.857Z,1268.00
2023-08-10T06:07:14.875Z,1272.00
2023-08-10T06:08:14.736Z,1288.00
2023-08-10T06:09:14.759Z,1312.00
2023-08-10T06:10:14.772Z,1344.00
2023-08-10T06:11:16.051Z,1408.00
2023-08-10T06:12:14.718Z,1472.00
2023-08-10T06:13:14.722Z,1508.00
2023-08-10T06:14:14.701Z,1504.00
2023-08-10T06:15:14.696Z,1504.00
2023-08-10T06:16:14.708Z,1500.00
2023-08-10T06:17:14.621Z,1492.00
2023-08-10T06:18:14.635Z,1492.00
2023-08-10T06:19:14.682Z,1492.00
2023-08-10T06:20:14.635Z,1492.00
2023-08-10T06:21:14.582Z,1472.00
2023-08-10T06:22:14.826Z,1452.00
2023-08-10T06:23:14.593Z,1432.00
2023-08-10T06:24:14.597Z,1412.00
2023-08-10T06:25:14.579Z,1392.00
2023-08-10T06:26:14.598Z,1372.00
2023-08-10T06:27:14.573Z,1368.00
2023-08-10T06:28:14.459Z,1348.00
2023-08-10T06:29:14.483Z,1128.00
2023-08-10T06:30:14.449Z,1148.00
2023-08-10T06:31:14.524Z,1088.00
2023-08-10T06:32:14.436Z,1152.00
2023-08-10T06:33:25.120Z,1156.00
2023-08-10T06:34:14.447Z,1308.00
2023-08-10T06:35:14.475Z,1340.00
2023-08-10T06:36:14.400Z,1324.00
2023-08-10T06:37:14.359Z,1380.00
2023-08-10T06:38:14.354Z,1340.00
2023-08-10T06:39:14.352Z,1376.00
2023-08-10T06:40:14.319Z,1376.00
2023-08-10T06:41:14.339Z,1372.00
2023-08-10T06:42:14.283Z,1372.00
2023-08-10T06:43:14.299Z,1372.00
2023-08-10T06:44:14.282Z,1368.00
2023-08-10T06:45:14.316Z,1368.00
2023-08-10T06:46:14.324Z,1364.00
2023-08-10T06:47:14.191Z,1356.00
2023-08-10T06:48:16.063Z,1368.00
2023-08-10T06:49:14.190Z,1360.00
2023-08-10T06:50:14.184Z,1368.00
2023-08-10T06:51:14.208Z,1368.00
2023-08-10T06:52:14.234Z,1364.00
2023-08-10T06:53:14.152Z,1376.00
2023-08-10T06:54:14.188Z,1380.00
2023-08-10T06:55:14.138Z,1364.00
2023-08-10T06:56:14.111Z,1364.00
2023-08-10T06:57:14.093Z,1368.00
2023-08-10T06:58:44.357Z,1372.00
2023-08-10T07:01:14.083Z,1376.00
2023-08-10T07:02:14.096Z,1380.00
2023-08-10T07:03:14.027Z,1396.00
2023-08-10T07:04:13.984Z,1412.00
2023-08-10T07:05:14.031Z,1436.00
2023-08-10T07:06:14.012Z,1444.00
2023-08-10T07:07:13.987Z,1552.00
2023-08-10T07:08:13.992Z,1480.00
2023-08-10T07:09:13.954Z,1392.00
2023-08-10T07:10:13.922Z,1384.00
2023-08-10T07:11:13.885Z,1392.00
2023-08-10T07:12:13.946Z,1400.00
2023-08-10T07:13:13.883Z,1416.00
2023-08-10T07:14:13.888Z,1436.00
2023-08-10T07:15:13.864Z,1432.00
2023-08-10T07:16:14.060Z,1420.00
2023-08-10T07:17:13.898Z,1420.00
2023-08-10T07:18:13.893Z,1416.00
2023-08-10T07:19:13.786Z,1424.00
2023-08-10T07:20:13.817Z,1432.00
2023-08-10T07:21:13.769Z,1424.00
2023-08-10T07:22:13.746Z,1428.00
2023-08-10T07:23:13.773Z,1440.00
2023-08-10T07:24:13.730Z,1536.00
2023-08-10T07:25:13.776Z,1548.00
2023-08-10T07:26:13.746Z,1700.00
2023-08-10T07:27:14.005Z,1560.00
2023-08-10T07:28:13.716Z,1496.00
2023-08-10T07:29:13.713Z,1480.00
2023-08-10T07:30:13.894Z,1456.00
2023-08-10T07:31:13.733Z,1472.00
2023-08-10T07:32:13.652Z,1476.00
2023-08-10T07:33:13.675Z,1448.00
2023-08-10T07:34:13.665Z,1460.00
2023-08-10T07:35:13.562Z,1452.00
2023-08-10T07:36:13.613Z,1452.00
2023-08-10T07:37:13.549Z,1456.00
2023-08-10T07:38:13.611Z,1428.00
2023-08-10T07:39:13.522Z,1444.00
2023-08-10T07:40:13.732Z,1492.00
2023-08-10T07:41:13.536Z,1496.00
2023-08-10T07:42:13.472Z,1504.00
2023-08-10T07:43:13.461Z,1480.00
2023-08-10T07:44:13.514Z,1504.00
2023-08-10T07:45:13.456Z,1592.00
2023-08-10T07:46:13.424Z,1648.00
2023-08-10T07:47:13.421Z,1560.00
2023-08-10T07:48:13.447Z,1516.00
2023-08-10T07:49:13.394Z,1540.00
2023-08-10T07:50:13.392Z,1564.00
2023-08-10T07:51:13.398Z,1544.00
2023-08-10T07:52:13.356Z,1512.00
2023-08-10T07:53:13.348Z,1488.00
2023-08-10T07:54:13.374Z,1492.00
2023-08-10T07:55:13.372Z,1500.00
2023-08-10T07:56:13.262Z,1504.00
2023-08-10T07:57:13.254Z,1496.00
2023-08-10T07:58:13.241Z,1504.00
2023-08-10T07:59:13.240Z,1508.00
2023-08-10T08:00:13.207Z,1504.00
2023-08-10T08:01:13.279Z,1500.00
2023-08-10T08:02:13.263Z,1500.00
2023-08-10T08:03:13.279Z,1504.00
2023-08-10T08:04:13.406Z,1520.00
2023-08-10T08:05:13.188Z,1508.00
2023-08-10T08:06:13.140Z,1508.00
2023-08-10T08:07:13.150Z,1520.00
2023-08-10T08:08:13.107Z,1532.00
2023-08-10T08:09:13.115Z,1528.00
2023-08-10T08:10:13.143Z,1516.00
2023-08-10T08:11:13.102Z,1532.00
2023-08-10T08:12:13.076Z,1548.00
2023-08-10T08:13:13.055Z,1528.00
2023-08-10T08:14:13.014Z,1512.00
2023-08-10T08:15:13.058Z,1508.00
2023-08-10T08:16:13.020Z,1504.00
2023-08-10T08:17:13.004Z,1544.00
2023-08-10T08:18:13.035Z,1544.00
2023-08-10T08:19:12.975Z,1628.00
2023-08-10T08:20:12.978Z,1512.00
2023-08-10T08:21:12.946Z,1512.00
2023-08-10T08:22:12.955Z,1684.00
2023-08-10T08:23:13.018Z,1728.00
2023-08-10T08:24:13.001Z,1540.00
2023-08-10T08:25:12.911Z,1584.00
2023-08-10T08:26:12.969Z,1732.00
2023-08-10T08:27:12.874Z,1892.00
2023-08-10T08:28:12.861Z,1604.00
2023-08-10T08:29:12.876Z,1528.00
2023-08-10T08:30:12.868Z,1536.00
2023-08-10T08:31:12.864Z,1636.00
2023-08-10T08:32:22.298Z,1784.00
2023-08-10T08:33:13.808Z,1592.00
2023-08-10T08:34:12.802Z,1600.00
2023-08-10T08:35:12.811Z,1564.00
2023-08-10T08:36:12.835Z,1564.00
2023-08-10T08:37:12.777Z,1556.00
2023-08-10T08:38:12.732Z,1556.00
2023-08-10T08:39:12.705Z,1552.00
2023-08-10T08:40:12.726Z,1552.00
2023-08-10T08:41:12.681Z,1552.00
2023-08-10T08:42:12.688Z,1556.00
2023-08-10T08:43:12.666Z,1584.00
2023-08-10T08:44:12.675Z,1584.00
2023-08-10T08:45:12.644Z,1576.00
2023-08-10T08:46:12.701Z,1576.00
2023-08-10T08:47:12.655Z,1584.00
2023-08-10T08:48:12.666Z,1620.00
2023-08-10T08:49:12.605Z,1664.00
2023-08-10T08:50:12.637Z,1668.00
2023-08-10T08:51:12.713Z,1632.00
2023-08-10T08:52:12.545Z,1624.00
2023-08-10T08:53:12.538Z,1616.00
2023-08-10T08:54:12.530Z,1648.00
2023-08-10T08:55:12.518Z,1632.00
2023-08-10T08:56:12.545Z,1668.00
2023-08-10T08:57:12.499Z,1652.00
2023-08-10T08:58:12.457Z,1632.00
2023-08-10T08:59:12.480Z,1644.00
2023-08-10T09:00:12.439Z,1628.00
2023-08-10T09:01:13.478Z,1624.00
2023-08-10T09:02:17.952Z,1628.00
2023-08-10T09:03:13.481Z,1636.00
2023-08-10T09:04:12.618Z,1632.00
2023-08-10T09:05:12.346Z,1620.00
2023-08-10T09:06:12.399Z,1628.00
2023-08-10T09:07:12.384Z,1672.00
2023-08-10T09:08:12.306Z,1688.00
2023-08-10T09:09:12.309Z,1688.00
2023-08-10T09:10:12.297Z,1684.00
2023-08-10T09:11:12.273Z,1672.00
2023-08-10T09:12:12.300Z,1676.00
2023-08-10T09:13:12.241Z,1684.00
2023-08-10T09:14:12.236Z,1684.00
2023-08-10T09:15:12.240Z,1700.00
2023-08-10T09:16:12.310Z,1696.00
2023-08-10T09:17:12.199Z,1696.00
2023-08-10T09:18:12.216Z,1696.00
2023-08-10T09:19:12.186Z,1696.00
2023-08-10T09:20:12.262Z,1700.00
2023-08-10T09:21:12.133Z,1700.00
2023-08-10T09:22:12.111Z,1704.00
2023-08-10T09:23:12.110Z,1704.00
2023-08-10T09:24:12.222Z,1700.00
2023-08-10T09:25:12.104Z,1712.00
2023-08-10T09:26:12.105Z,1660.00
2023-08-10T09:27:12.112Z,1652.00
2023-08-10T09:28:12.066Z,1696.00
2023-08-10T09:29:12.048Z,1728.00
2023-08-10T09:30:12.030Z,1696.00
2023-08-10T09:31:14.868Z,1680.00
2023-08-10T09:32:12.011Z,1664.00
2023-08-10T09:33:12.004Z,1676.00
2023-08-10T09:34:11.990Z,1680.00
2023-08-10T09:35:11.959Z,1684.00
2023-08-10T09:36:11.961Z,1688.00
2023-08-10T09:37:14.176Z,1696.00
2023-08-10T09:38:11.922Z,1708.00
2023-08-10T09:39:14.648Z,1696.00
2023-08-10T09:40:11.869Z,1692.00
2023-08-10T09:41:11.934Z,1684.00
2023-08-10T09:42:11.913Z,1692.00
2023-08-10T09:43:12.692Z,1692.00
2023-08-10T09:44:11.844Z,1696.00
2023-08-10T09:45:11.826Z,1668.00
2023-08-10T09:46:11.889Z,1696.00
2023-08-10T09:47:11.830Z,1700.00
2023-08-10T09:48:18.482Z,1704.00
2023-08-10T09:49:13.933Z,1708.00
2023-08-10T09:50:11.772Z,1720.00
2023-08-10T09:51:11.777Z,1732.00
2023-08-10T09:52:11.741Z,1872.00
2023-08-10T09:53:11.710Z,1828.00
2023-08-10T09:54:11.704Z,1820.00
2023-08-10T09:55:12.583Z,1820.00
2023-08-10T09:56:11.777Z,1824.00
2023-08-10T09:57:11.755Z,1824.00
2023-08-10T09:58:11.641Z,1828.00
2023-08-10T09:59:11.625Z,1832.00
2023-08-10T10:00:11.595Z,1828.00
2023-08-10T10:01:15.857Z,1828.00
2023-08-10T10:02:12.592Z,1840.00
2023-08-10T10:03:11.591Z,1768.00
2023-08-10T10:04:11.650Z,1804.00
2023-08-10T10:05:16.662Z,1832.00
2023-08-10T10:06:12.550Z,1856.00
2023-08-10T10:07:13.780Z,1876.00
2023-08-10T10:08:11.512Z,1888.00
2023-08-10T10:09:11.498Z,1976.00
2023-08-10T10:10:11.478Z,1944.00
2023-08-10T10:11:11.506Z,1812.00
2023-08-10T10:12:11.462Z,1888.00
2023-08-10T10:13:12.387Z,1952.00
2023-08-10T10:14:11.424Z,1924.00
2023-08-10T10:15:11.418Z,1996.00
2023-08-10T10:16:11.540Z,2040.00
2023-08-10T10:17:11.385Z,2024.00
2023-08-10T10:18:11.461Z,2028.00
2023-08-10T10:19:13.331Z,2044.00
2023-08-10T10:20:11.369Z,2068.00
2023-08-10T10:21:11.362Z,2076.00
2023-08-10T10:22:11.330Z,2072.00
2023-08-10T10:23:11.303Z,2084.00
2023-08-10T10:24:11.313Z,2068.00
2023-08-10T10:25:11.965Z,2076.00
2023-08-10T10:26:13.036Z,2072.00
2023-08-10T10:27:11.252Z,2068.00
2023-08-10T10:28:11.238Z,2080.00
2023-08-10T10:29:11.243Z,2100.00
2023-08-10T10:30:11.311Z,2112.00
2023-08-10T10:31:13.260Z,2120.00
2023-08-10T10:32:11.178Z,2132.00
2023-08-10T10:33:11.267Z,2192.00
2023-08-10T10:34:11.181Z,2168.00
2023-08-10T10:35:11.159Z,2144.00
2023-08-10T10:36:21.342Z,2168.00
2023-08-10T10:37:12.447Z,2204.00
2023-08-10T10:38:11.114Z,2196.00
2023-08-10T10:39:11.148Z,2140.00
2023-08-10T10:40:11.096Z,2188.00
2023-08-10T10:41:11.084Z,2168.00
2023-08-10T10:42:11.049Z,2208.00
2023-08-10T10:43:11.094Z,2372.00
2023-08-10T10:44:11.037Z,2424.00
2023-08-10T10:45:11.043Z,2468.00
2023-08-10T10:46:11.007Z,2452.00
2023-08-10T10:47:10.993Z,2396.00
2023-08-10T10:48:10.971Z,2424.00
2023-08-10T10:49:10.986Z,2392.00
2023-08-10T10:50:10.936Z,2408.00
2023-08-10T10:51:10.936Z,2464.00
2023-08-10T10:52:11.242Z,2492.00
2023-08-10T10:53:10.939Z,2368.00
2023-08-10T10:54:10.939Z,2364.00
2023-08-10T10:55:10.911Z,2372.00
2023-08-10T10:56:10.858Z,2444.00
2023-08-10T10:57:10.860Z,2544.00
2023-08-10T10:58:10.840Z,2612.00
2023-08-10T10:59:10.856Z,2864.00
2023-08-10T11:00:10.824Z,3084.00
2023-08-10T11:01:10.810Z,3260.00
2023-08-10T11:02:10.883Z,3596.00
2023-08-10T11:03:10.853Z,3628.00
2023-08-10T11:04:10.773Z,3972.00
2023-08-10T11:05:10.786Z,4524.00
2023-08-10T11:06:11.261Z,4896.00
2023-08-10T11:07:10.750Z,5024.00
2023-08-10T11:08:10.759Z,5300.00
2023-08-10T11:09:10.845Z,5612.00
2023-08-10T11:10:10.717Z,5844.00
2023-08-10T11:11:10.710Z,5968.00
2023-08-10T11:12:10.694Z,6132.00
2023-08-10T11:13:10.653Z,6280.00
2023-08-10T11:14:10.639Z,6084.00
2023-08-10T11:15:10.625Z,6172.00
2023-08-10T11:16:10.676Z,5876.00
2023-08-10T11:17:11.651Z,5868.00
2023-08-10T11:18:10.861Z,6796.00
2023-08-10T11:19:10.592Z,6600.00
2023-08-10T11:20:10.580Z,6584.00
2023-08-10T11:21:10.662Z,6560.00
2023-08-10T11:22:10.550Z,6480.00
2023-08-10T11:23:10.547Z,6588.00
2023-08-10T11:24:10.505Z,6760.00
2023-08-10T11:25:10.601Z,6704.00
2023-08-10T11:26:10.542Z,6532.00
2023-08-10T11:27:10.489Z,6668.00
2023-08-10T11:28:10.468Z,7064.00
2023-08-10T11:29:10.549Z,7036.00
2023-08-10T11:30:10.569Z,6772.00
2023-08-10T11:31:10.513Z,6968.00
2023-08-10T11:32:11.004Z,6980.00
2023-08-10T11:33:12.159Z,7080.00
2023-08-10T11:34:10.444Z,7080.00
2023-08-10T11:35:12.815Z,7172.00
2023-08-10T11:36:10.339Z,7192.00
2023-08-10T11:37:10.358Z,7020.00
2023-08-10T11:38:10.367Z,6216.00
2023-08-10T11:39:10.346Z,7120.00
2023-08-10T11:40:10.517Z,5788.00
2023-08-10T11:41:15.069Z,7216.00
2023-08-10T11:42:10.332Z,6424.00
2023-08-10T11:43:10.343Z,6196.00
2023-08-10T11:44:10.265Z,6124.00
2023-08-10T11:45:10.300Z,5012.00
2023-08-10T11:46:10.287Z,4952.00
2023-08-10T11:47:10.221Z,5152.00
2023-08-10T11:48:10.238Z,6608.00
2023-08-10T11:49:10.174Z,4364.00
2023-08-10T11:50:10.201Z,4804.00
2023-08-10T11:51:10.252Z,5036.00
2023-08-10T11:52:11.083Z,5960.00
2023-08-10T11:53:10.129Z,5700.00
2023-08-10T11:54:10.144Z,5668.00
2023-08-10T11:55:10.115Z,5656.00
2023-08-10T11:56:10.112Z,5556.00
2023-08-10T11:57:10.060Z,5304.00
2023-08-10T11:58:11.020Z,5300.00
2023-08-10T11:59:10.079Z,5352.00
2023-08-10T12:00:10.043Z,5160.00
2023-08-10T12:01:10.060Z,4936.00
2023-08-10T12:02:10.023Z,4820.00
2023-08-10T12:03:09.990Z,5000.00
2023-08-10T12:04:09.989Z,4648.00
2023-08-10T12:05:09.982Z,4272.00
2023-08-10T12:06:10.099Z,4752.00
2023-08-10T12:07:09.946Z,4828.00
2023-08-10T12:08:09.967Z,4904.00
2023-08-10T12:09:09.921Z,4652.00
2023-08-10T12:10:09.909Z,4552.00
2023-08-10T12:11:09.920Z,4556.00
2023-08-10T12:12:09.928Z,3960.00
2023-08-10T12:13:09.889Z,4900.00
2023-08-10T12:14:09.889Z,5084.00
2023-08-10T12:15:09.881Z,5248.00
2023-08-10T12:16:09.901Z,5512.00
2023-08-10T12:17:09.805Z,5692.00
2023-08-10T12:18:09.869Z,5688.00
2023-08-10T12:19:09.907Z,5944.00
2023-08-10T12:20:09.773Z,5972.00
2023-08-10T12:21:09.811Z,5648.00
2023-08-10T12:22:09.788Z,5584.00
2023-08-10T12:23:09.795Z,5596.00
2023-08-10T12:24:09.734Z,5648.00
2023-08-10T12:25:09.764Z,5572.00
2023-08-10T12:26:09.733Z,5304.00
2023-08-10T12:27:09.656Z,5360.00
2023-08-10T12:28:09.722Z,5268.00
2023-08-10T12:29:09.665Z,5216.00
2023-08-10T12:30:09.658Z,5208.00
2023-08-10T12:31:09.969Z,5260.00
2023-08-10T12:32:10.573Z,5220.00
2023-08-10T12:33:09.637Z,5348.00
2023-08-10T12:34:09.587Z,5364.00
2023-08-10T12:35:09.620Z,5412.00
2023-08-10T12:36:09.654Z,5192.00
2023-08-10T12:37:09.598Z,5320.00
2023-08-10T12:38:09.548Z,5424.00
2023-08-10T12:39:09.579Z,5480.00
2023-08-10T12:40:09.540Z,5412.00
2023-08-10T12:41:09.518Z,5568.00
2023-08-10T12:42:09.479Z,5500.00
2023-08-10T12:43:09.467Z,5756.00
2023-08-10T12:44:09.493Z,5804.00